sensor_id;sensor_type;location;lat;lon;timestamp;P1;durP1;ratioP1;P2;durP2;ratioP2
26598;SDS011;14240;51.064;16.612;2023-12-14T00:02:00;304.30;;;67.35;;
26598;SDS011;14240;51.064;16.612;2023-12-14T00:04:26;276.52;;;61.80;;
26598;SDS011;14240;51.064;16.612;2023-12-14T00:06:51;216.77;;;56.92;;
26598;SDS011;14240;51.064;16.612;2023-12-14T00:09:17;263.00;;;60.50;;
26598;SDS011;14240;51.064;16.612;2023-12-14T00:11:43;231.18;;;55.78;;
26598;SDS011;14240;51.064;16.612;2023-12-14T00:14:08;185.25;;;53.85;;
26598;SDS011;14240;51.064;16.612;2023-12-14T00:16:34;248.80;;;57.80;;
26598;SDS011;14240;51.064;16.612;2023-12-14T00:19:00;204.65;;;55.25;;
26598;SDS011;14240;51.064;16.612;2023-12-14T00:21:25;237.15;;;57.35;;
26598;SDS011;14240;51.064;16.612;2023-12-14T00:23:51;219.07;;;54.97;;
26598;SDS011;14240;51.064;16.612;2023-12-14T00:26:17;237.60;;;56.65;;
26598;SDS011;14240;51.064;16.612;2023-12-14T00:28:43;235.23;;;56.65;;
26598;SDS011;14240;51.064;16.612;2023-12-14T00:31:08;161.80;;;49.10;;
26598;SDS011;14240;51.064;16.612;2023-12-14T00:33:34;146.40;;;48.10;;
26598;SDS011;14240;51.064;16.612;2023-12-14T00:36:00;153.25;;;47.72;;
26598;SDS011;14240;51.064;16.612;2023-12-14T00:38:26;147.43;;;45.88;;
26598;SDS011;14240;51.064;16.612;2023-12-14T00:40:51;135.07;;;42.92;;
26598;SDS011;14240;51.064;16.612;2023-12-14T00:43:17;108.13;;;38.05;;
26598;SDS011;14240;51.064;16.612;2023-12-14T00:45:43;126.22;;;39.42;;
26598;SDS011;14240;51.064;16.612;2023-12-14T00:48:08;136.85;;;44.00;;
26598;SDS011;14240;51.064;16.612;2023-12-14T00:50:34;121.32;;;39.22;;
26598;SDS011;14240;51.064;16.612;2023-12-14T00:53:00;134.40;;;43.13;;
26598;SDS011;14240;51.064;16.612;2023-12-14T00:55:25;135.00;;;42.05;;
26598;SDS011;14240;51.064;16.612;2023-12-14T00:57:51;137.18;;;41.75;;
26598;SDS011;14240;51.064;16.612;2023-12-14T01:00:17;156.50;;;46.05;;
26598;SDS011;14240;51.064;16.612;2023-12-14T01:02:43;162.98;;;47.05;;
26598;SDS011;14240;51.064;16.612;2023-12-14T01:05:09;158.98;;;45.38;;
26598;SDS011;14240;51.064;16.612;2023-12-14T01:07:35;159.70;;;46.70;;
26598;SDS011;14240;51.064;16.612;2023-12-14T01:10:00;176.60;;;47.97;;
26598;SDS011;14240;51.064;16.612;2023-12-14T01:12:26;195.98;;;50.35;;
26598;SDS011;14240;51.064;16.612;2023-12-14T01:14:52;165.10;;;47.05;;
26598;SDS011;14240;51.064;16.612;2023-12-14T01:17:18;169.75;;;48.53;;
26598;SDS011;14240;51.064;16.612;2023-12-14T01:19:43;191.88;;;50.47;;
26598;SDS011;14240;51.064;16.612;2023-12-14T01:22:09;234.55;;;52.20;;
26598;SDS011;14240;51.064;16.612;2023-12-14T01:24:35;225.00;;;52.92;;
26598;SDS011;14240;51.064;16.612;2023-12-14T01:27:01;186.35;;;49.72;;
26598;SDS011;14240;51.064;16.612;2023-12-14T01:29:27;279.05;;;58.75;;
26598;SDS011;14240;51.064;16.612;2023-12-14T01:31:53;264.63;;;56.53;;
26598;SDS011;14240;51.064;16.612;2023-12-14T01:34:18;256.35;;;58.08;;
26598;SDS011;14240;51.064;16.612;2023-12-14T01:36:44;240.50;;;59.72;;
26598;SDS011;14240;51.064;16.612;2023-12-14T01:39:10;248.32;;;58.78;;
26598;SDS011;14240;51.064;16.612;2023-12-14T01:41:35;239.55;;;54.40;;
26598;SDS011;14240;51.064;16.612;2023-12-14T01:44:01;188.65;;;52.08;;
26598;SDS011;14240;51.064;16.612;2023-12-14T01:46:27;205.73;;;53.47;;
26598;SDS011;14240;51.064;16.612;2023-12-14T01:48:52;216.07;;;50.22;;
26598;SDS011;14240;51.064;16.612;2023-12-14T01:51:18;204.63;;;53.63;;
26598;SDS011;14240;51.064;16.612;2023-12-14T01:53:44;158.98;;;49.50;;
26598;SDS011;14240;51.064;16.612;2023-12-14T01:56:12;155.02;;;47.75;;
26598;SDS011;14240;51.064;16.612;2023-12-14T01:58:37;207.98;;;52.28;;
26598;SDS011;14240;51.064;16.612;2023-12-14T02:03:32;190.57;;;50.60;;
26598;SDS011;14240;51.064;16.612;2023-12-14T02:05:57;153.05;;;46.17;;
26598;SDS011;14240;51.064;16.612;2023-12-14T02:08:27;180.80;;;50.83;;
26598;SDS011;14240;51.064;16.612;2023-12-14T02:10:54;166.75;;;47.80;;
26598;SDS011;14240;51.064;16.612;2023-12-14T02:13:20;149.57;;;45.70;;
26598;SDS011;14240;51.064;16.612;2023-12-14T02:15:45;179.23;;;48.88;;
26598;SDS011;14240;51.064;16.612;2023-12-14T02:18:12;167.90;;;46.75;;
26598;SDS011;14240;51.064;16.612;2023-12-14T02:20:37;157.88;;;47.55;;
26598;SDS011;14240;51.064;16.612;2023-12-14T02:23:03;166.77;;;48.22;;
26598;SDS011;14240;51.064;16.612;2023-12-14T02:25:29;162.82;;;45.80;;
26598;SDS011;14240;51.064;16.612;2023-12-14T02:27:54;145.70;;;42.88;;
26598;SDS011;14240;51.064;16.612;2023-12-14T02:30:20;137.85;;;42.13;;
26598;SDS011;14240;51.064;16.612;2023-12-14T02:32:46;173.50;;;45.80;;
26598;SDS011;14240;51.064;16.612;2023-12-14T02:35:12;158.60;;;46.33;;
26598;SDS011;14240;51.064;16.612;2023-12-14T02:37:37;224.32;;;52.13;;
26598;SDS011;14240;51.064;16.612;2023-12-14T02:40:05;171.00;;;50.55;;
26598;SDS011;14240;51.064;16.612;2023-12-14T02:42:32;206.38;;;49.72;;
26598;SDS011;14240;51.064;16.612;2023-12-14T02:44:59;181.40;;;47.20;;
26598;SDS011;14240;51.064;16.612;2023-12-14T02:47:27;206.70;;;49.88;;
26598;SDS011;14240;51.064;16.612;2023-12-14T02:49:53;192.63;;;47.35;;
26598;SDS011;14240;51.064;16.612;2023-12-14T02:52:19;250.65;;;56.03;;
26598;SDS011;14240;51.064;16.612;2023-12-14T02:54:45;236.93;;;53.25;;
26598;SDS011;14240;51.064;16.612;2023-12-14T02:57:10;218.48;;;53.05;;
26598;SDS011;14240;51.064;16.612;2023-12-14T02:59:36;260.52;;;54.95;;
26598;SDS011;14240;51.064;16.612;2023-12-14T03:02:01;199.75;;;48.67;;
26598;SDS011;14240;51.064;16.612;2023-12-14T03:04:28;243.85;;;53.88;;
26598;SDS011;14240;51.064;16.612;2023-12-14T03:06:53;271.90;;;52.40;;
26598;SDS011;14240;51.064;16.612;2023-12-14T03:09:19;236.88;;;50.88;;
26598;SDS011;14240;51.064;16.612;2023-12-14T03:11:45;202.85;;;48.08;;
26598;SDS011;14240;51.064;16.612;2023-12-14T03:14:11;199.30;;;49.38;;
26598;SDS011;14240;51.064;16.612;2023-12-14T03:16:36;229.52;;;52.05;;
26598;SDS011;14240;51.064;16.612;2023-12-14T03:19:02;197.50;;;49.35;;
26598;SDS011;14240;51.064;16.612;2023-12-14T03:21:28;194.13;;;49.15;;
26598;SDS011;14240;51.064;16.612;2023-12-14T03:23:54;207.77;;;55.13;;
26598;SDS011;14240;51.064;16.612;2023-12-14T03:26:20;223.85;;;53.25;;
26598;SDS011;14240;51.064;16.612;2023-12-14T03:28:45;201.93;;;49.83;;
26598;SDS011;14240;51.064;16.612;2023-12-14T03:31:11;217.77;;;51.75;;
26598;SDS011;14240;51.064;16.612;2023-12-14T03:33:41;197.15;;;50.25;;
26598;SDS011;14240;51.064;16.612;2023-12-14T03:36:07;204.77;;;50.30;;
26598;SDS011;14240;51.064;16.612;2023-12-14T03:38:33;205.80;;;50.38;;
26598;SDS011;14240;51.064;16.612;2023-12-14T03:40:59;250.82;;;55.08;;
26598;SDS011;14240;51.064;16.612;2023-12-14T03:43:25;307.15;;;59.65;;
26598;SDS011;14240;51.064;16.612;2023-12-14T03:45:50;215.52;;;51.28;;
26598;SDS011;14240;51.064;16.612;2023-12-14T03:48:16;267.10;;;56.10;;
26598;SDS011;14240;51.064;16.612;2023-12-14T03:50:42;277.88;;;58.67;;
26598;SDS011;14240;51.064;16.612;2023-12-14T03:53:07;248.27;;;55.58;;
26598;SDS011;14240;51.064;16.612;2023-12-14T03:55:33;307.90;;;60.47;;
26598;SDS011;14240;51.064;16.612;2023-12-14T03:57:59;272.27;;;55.80;;
26598;SDS011;14240;51.064;16.612;2023-12-14T04:00:25;258.25;;;56.08;;
26598;SDS011;14240;51.064;16.612;2023-12-14T04:02:51;311.55;;;63.55;;
26598;SDS011;14240;51.064;16.612;2023-12-14T04:05:16;255.10;;;55.92;;
26598;SDS011;14240;51.064;16.612;2023-12-14T04:07:42;347.23;;;65.25;;
26598;SDS011;14240;51.064;16.612;2023-12-14T04:10:11;256.85;;;55.67;;
26598;SDS011;14240;51.064;16.612;2023-12-14T04:12:38;273.40;;;56.83;;
26598;SDS011;14240;51.064;16.612;2023-12-14T04:15:04;218.50;;;48.17;;
26598;SDS011;14240;51.064;16.612;2023-12-14T04:17:32;298.65;;;57.78;;
26598;SDS011;14240;51.064;16.612;2023-12-14T04:19:57;262.25;;;51.95;;
26598;SDS011;14240;51.064;16.612;2023-12-14T04:22:24;287.10;;;56.35;;
26598;SDS011;14240;51.064;16.612;2023-12-14T04:24:50;222.40;;;49.72;;
26598;SDS011;14240;51.064;16.612;2023-12-14T04:27:16;234.85;;;53.90;;
26598;SDS011;14240;51.064;16.612;2023-12-14T04:29:42;263.80;;;56.92;;
26598;SDS011;14240;51.064;16.612;2023-12-14T04:32:08;309.27;;;61.58;;
26598;SDS011;14240;51.064;16.612;2023-12-14T04:34:34;211.70;;;54.33;;
26598;SDS011;14240;51.064;16.612;2023-12-14T04:37:00;326.13;;;62.40;;
26598;SDS011;14240;51.064;16.612;2023-12-14T04:39:25;244.20;;;54.10;;
26598;SDS011;14240;51.064;16.612;2023-12-14T04:41:51;281.85;;;55.75;;
26598;SDS011;14240;51.064;16.612;2023-12-14T04:44:21;310.55;;;60.20;;
26598;SDS011;14240;51.064;16.612;2023-12-14T04:46:47;296.83;;;58.70;;
26598;SDS011;14240;51.064;16.612;2023-12-14T04:49:13;254.15;;;57.50;;
26598;SDS011;14240;51.064;16.612;2023-12-14T04:51:39;251.38;;;54.72;;
26598;SDS011;14240;51.064;16.612;2023-12-14T04:54:05;257.27;;;53.72;;
26598;SDS011;14240;51.064;16.612;2023-12-14T04:56:30;272.63;;;55.90;;
26598;SDS011;14240;51.064;16.612;2023-12-14T04:58:56;323.20;;;61.22;;
26598;SDS011;14240;51.064;16.612;2023-12-14T05:01:22;214.50;;;49.38;;
26598;SDS011;14240;51.064;16.612;2023-12-14T05:03:48;212.18;;;51.58;;
26598;SDS011;14240;51.064;16.612;2023-12-14T05:06:13;232.13;;;53.38;;
26598;SDS011;14240;51.064;16.612;2023-12-14T05:08:39;268.15;;;53.08;;
26598;SDS011;14240;51.064;16.612;2023-12-14T05:11:05;302.10;;;53.90;;
26598;SDS011;14240;51.064;16.612;2023-12-14T05:13:30;250.48;;;51.78;;
26598;SDS011;14240;51.064;16.612;2023-12-14T05:15:56;274.38;;;54.20;;
26598;SDS011;14240;51.064;16.612;2023-12-14T05:18:25;293.67;;;54.25;;
26598;SDS011;14240;51.064;16.612;2023-12-14T05:20:51;297.15;;;54.15;;
26598;SDS011;14240;51.064;16.612;2023-12-14T05:23:17;265.10;;;52.45;;
26598;SDS011;14240;51.064;16.612;2023-12-14T05:25:43;244.32;;;51.58;;
26598;SDS011;14240;51.064;16.612;2023-12-14T05:28:09;326.38;;;58.20;;
26598;SDS011;14240;51.064;16.612;2023-12-14T05:30:35;298.60;;;57.22;;
26598;SDS011;14240;51.064;16.612;2023-12-14T05:33:01;270.83;;;55.58;;
26598;SDS011;14240;51.064;16.612;2023-12-14T05:35:27;423.95;;;62.60;;
26598;SDS011;14240;51.064;16.612;2023-12-14T05:37:52;332.45;;;56.63;;
26598;SDS011;14240;51.064;16.612;2023-12-14T05:40:18;373.88;;;62.10;;
26598;SDS011;14240;51.064;16.612;2023-12-14T05:42:44;301.45;;;54.13;;
26598;SDS011;14240;51.064;16.612;2023-12-14T05:45:10;412.95;;;61.85;;
26598;SDS011;14240;51.064;16.612;2023-12-14T05:47:35;241.45;;;50.97;;
26598;SDS011;14240;51.064;16.612;2023-12-14T05:50:02;315.13;;;56.17;;
26598;SDS011;14240;51.064;16.612;2023-12-14T05:52:29;460.90;;;64.18;;
26598;SDS011;14240;51.064;16.612;2023-12-14T05:54:54;367.02;;;59.10;;
26598;SDS011;14240;51.064;16.612;2023-12-14T05:57:20;280.52;;;53.03;;
26598;SDS011;14240;51.064;16.612;2023-12-14T05:59:46;279.13;;;53.30;;
26598;SDS011;14240;51.064;16.612;2023-12-14T06:02:11;307.63;;;55.80;;
26598;SDS011;14240;51.064;16.612;2023-12-14T06:04:37;322.20;;;59.50;;
26598;SDS011;14240;51.064;16.612;2023-12-14T06:07:03;343.95;;;57.63;;
26598;SDS011;14240;51.064;16.612;2023-12-14T06:09:28;264.67;;;53.35;;
26598;SDS011;14240;51.064;16.612;2023-12-14T06:11:59;296.13;;;54.22;;
26598;SDS011;14240;51.064;16.612;2023-12-14T06:14:28;324.50;;;59.03;;
26598;SDS011;14240;51.064;16.612;2023-12-14T06:16:54;313.05;;;57.20;;
26598;SDS011;14240;51.064;16.612;2023-12-14T06:19:20;311.15;;;58.20;;
26598;SDS011;14240;51.064;16.612;2023-12-14T06:21:46;253.15;;;50.10;;
26598;SDS011;14240;51.064;16.612;2023-12-14T06:24:12;268.75;;;55.88;;
26598;SDS011;14240;51.064;16.612;2023-12-14T06:26:41;306.58;;;55.33;;
26598;SDS011;14240;51.064;16.612;2023-12-14T06:29:08;343.98;;;61.15;;
26598;SDS011;14240;51.064;16.612;2023-12-14T06:31:37;272.23;;;50.15;;
26598;SDS011;14240;51.064;16.612;2023-12-14T06:34:03;271.65;;;49.15;;
26598;SDS011;14240;51.064;16.612;2023-12-14T06:36:29;373.95;;;52.38;;
26598;SDS011;14240;51.064;16.612;2023-12-14T06:38:55;410.38;;;55.28;;
26598;SDS011;14240;51.064;16.612;2023-12-14T06:41:22;279.17;;;47.78;;
26598;SDS011;14240;51.064;16.612;2023-12-14T06:43:48;281.08;;;44.50;;
26598;SDS011;14240;51.064;16.612;2023-12-14T06:46:15;188.68;;;38.03;;
26598;SDS011;14240;51.064;16.612;2023-12-14T06:48:41;203.10;;;38.70;;
26598;SDS011;14240;51.064;16.612;2023-12-14T06:51:07;202.50;;;37.00;;
26598;SDS011;14240;51.064;16.612;2023-12-14T06:53:33;215.13;;;36.83;;
26598;SDS011;14240;51.064;16.612;2023-12-14T06:56:00;163.95;;;36.70;;
26598;SDS011;14240;51.064;16.612;2023-12-14T06:58:25;238.27;;;39.80;;
26598;SDS011;14240;51.064;16.612;2023-12-14T07:00:51;238.52;;;65.68;;
26598;SDS011;14240;51.064;16.612;2023-12-14T07:03:17;201.07;;;36.70;;
26598;SDS011;14240;51.064;16.612;2023-12-14T07:05:42;263.98;;;43.13;;
26598;SDS011;14240;51.064;16.612;2023-12-14T07:08:08;299.90;;;45.42;;
26598;SDS011;14240;51.064;16.612;2023-12-14T07:10:33;234.25;;;40.63;;
26598;SDS011;14240;51.064;16.612;2023-12-14T07:12:59;271.35;;;44.15;;
26598;SDS011;14240;51.064;16.612;2023-12-14T07:15:25;202.63;;;36.97;;
26598;SDS011;14240;51.064;16.612;2023-12-14T07:17:50;240.35;;;40.42;;
26598;SDS011;14240;51.064;16.612;2023-12-14T07:20:16;231.52;;;38.90;;
26598;SDS011;14240;51.064;16.612;2023-12-14T07:22:42;277.42;;;40.10;;
26598;SDS011;14240;51.064;16.612;2023-12-14T07:25:08;248.57;;;38.55;;
26598;SDS011;14240;51.064;16.612;2023-12-14T07:27:34;239.00;;;41.45;;
26598;SDS011;14240;51.064;16.612;2023-12-14T07:29:59;181.10;;;37.75;;
26598;SDS011;14240;51.064;16.612;2023-12-14T07:32:25;208.35;;;38.88;;
26598;SDS011;14240;51.064;16.612;2023-12-14T07:34:52;313.40;;;44.15;;
26598;SDS011;14240;51.064;16.612;2023-12-14T07:37:17;185.25;;;37.67;;
26598;SDS011;14240;51.064;16.612;2023-12-14T07:39:43;273.17;;;45.20;;
26598;SDS011;14240;51.064;16.612;2023-12-14T07:42:09;236.88;;;40.88;;
26598;SDS011;14240;51.064;16.612;2023-12-14T07:44:35;216.88;;;39.90;;
26598;SDS011;14240;51.064;16.612;2023-12-14T07:47:02;224.50;;;40.73;;
26598;SDS011;14240;51.064;16.612;2023-12-14T07:49:28;193.13;;;38.13;;
26598;SDS011;14240;51.064;16.612;2023-12-14T07:51:54;188.32;;;36.38;;
26598;SDS011;14240;51.064;16.612;2023-12-14T07:54:19;217.10;;;39.63;;
26598;SDS011;14240;51.064;16.612;2023-12-14T07:56:45;257.05;;;46.38;;
26598;SDS011;14240;51.064;16.612;2023-12-14T07:59:11;365.67;;;52.55;;
26598;SDS011;14240;51.064;16.612;2023-12-14T08:01:37;208.38;;;40.42;;
26598;SDS011;14240;51.064;16.612;2023-12-14T08:04:02;314.60;;;50.25;;
26598;SDS011;14240;51.064;16.612;2023-12-14T08:06:29;225.55;;;44.65;;
26598;SDS011;14240;51.064;16.612;2023-12-14T08:08:55;283.85;;;47.63;;
26598;SDS011;14240;51.064;16.612;2023-12-14T08:11:24;183.70;;;40.17;;
26598;SDS011;14240;51.064;16.612;2023-12-14T08:13:50;214.13;;;42.88;;
26598;SDS011;14240;51.064;16.612;2023-12-14T08:16:16;226.77;;;40.85;;
26598;SDS011;14240;51.064;16.612;2023-12-14T08:18:42;184.55;;;36.70;;
26598;SDS011;14240;51.064;16.612;2023-12-14T08:21:11;194.02;;;41.15;;
26598;SDS011;14240;51.064;16.612;2023-12-14T08:23:37;263.52;;;45.90;;
26598;SDS011;14240;51.064;16.612;2023-12-14T08:26:03;241.85;;;48.17;;
26598;SDS011;14240;51.064;16.612;2023-12-14T08:28:28;260.70;;;46.50;;
26598;SDS011;14240;51.064;16.612;2023-12-14T08:30:54;215.30;;;39.75;;
26598;SDS011;14240;51.064;16.612;2023-12-14T08:33:22;217.50;;;42.08;;
26598;SDS011;14240;51.064;16.612;2023-12-14T08:35:48;182.15;;;41.25;;
26598;SDS011;14240;51.064;16.612;2023-12-14T08:38:15;190.45;;;40.58;;
26598;SDS011;14240;51.064;16.612;2023-12-14T08:40:41;201.23;;;42.08;;
26598;SDS011;14240;51.064;16.612;2023-12-14T08:43:07;193.00;;;39.40;;
26598;SDS011;14240;51.064;16.612;2023-12-14T08:45:33;179.02;;;38.83;;
26598;SDS011;14240;51.064;16.612;2023-12-14T08:47:59;151.90;;;37.20;;
26598;SDS011;14240;51.064;16.612;2023-12-14T08:50:24;127.13;;;34.17;;
26598;SDS011;14240;51.064;16.612;2023-12-14T08:52:53;110.20;;;29.75;;
26598;SDS011;14240;51.064;16.612;2023-12-14T08:55:19;95.32;;;27.50;;
26598;SDS011;14240;51.064;16.612;2023-12-14T08:57:44;83.75;;;25.65;;
26598;SDS011;14240;51.064;16.612;2023-12-14T09:00:10;109.55;;;26.45;;
26598;SDS011;14240;51.064;16.612;2023-12-14T09:02:36;105.18;;;28.95;;
26598;SDS011;14240;51.064;16.612;2023-12-14T09:05:02;91.63;;;25.95;;
26598;SDS011;14240;51.064;16.612;2023-12-14T09:07:29;86.10;;;26.40;;
26598;SDS011;14240;51.064;16.612;2023-12-14T09:09:55;86.25;;;27.52;;
26598;SDS011;14240;51.064;16.612;2023-12-14T09:12:21;75.43;;;25.38;;
26598;SDS011;14240;51.064;16.612;2023-12-14T09:14:47;88.78;;;28.23;;
26598;SDS011;14240;51.064;16.612;2023-12-14T09:17:12;89.65;;;26.77;;
26598;SDS011;14240;51.064;16.612;2023-12-14T09:19:38;77.90;;;27.50;;
26598;SDS011;14240;51.064;16.612;2023-12-14T09:22:04;93.35;;;29.63;;
26598;SDS011;14240;51.064;16.612;2023-12-14T09:24:29;87.22;;;28.27;;
26598;SDS011;14240;51.064;16.612;2023-12-14T09:26:55;88.72;;;30.02;;
26598;SDS011;14240;51.064;16.612;2023-12-14T09:29:21;80.90;;;26.50;;
26598;SDS011;14240;51.064;16.612;2023-12-14T09:31:47;89.70;;;27.55;;
26598;SDS011;14240;51.064;16.612;2023-12-14T09:34:13;89.03;;;28.15;;
26598;SDS011;14240;51.064;16.612;2023-12-14T09:36:39;79.72;;;27.70;;
26598;SDS011;14240;51.064;16.612;2023-12-14T09:39:05;79.00;;;27.20;;
26598;SDS011;14240;51.064;16.612;2023-12-14T09:41:35;81.38;;;28.73;;
26598;SDS011;14240;51.064;16.612;2023-12-14T09:44:02;80.10;;;26.13;;
26598;SDS011;14240;51.064;16.612;2023-12-14T09:46:30;80.28;;;24.83;;
26598;SDS011;14240;51.064;16.612;2023-12-14T09:48:57;73.07;;;25.30;;
26598;SDS011;14240;51.064;16.612;2023-12-14T09:51:24;79.55;;;25.80;;
26598;SDS011;14240;51.064;16.612;2023-12-14T09:53:52;65.93;;;25.67;;
26598;SDS011;14240;51.064;16.612;2023-12-14T09:56:23;69.78;;;26.08;;
26598;SDS011;14240;51.064;16.612;2023-12-14T09:58:49;65.40;;;26.63;;
26598;SDS011;14240;51.064;16.612;2023-12-14T10:01:22;66.68;;;22.52;;
26598;SDS011;14240;51.064;16.612;2023-12-14T10:03:49;68.65;;;24.00;;
26598;SDS011;14240;51.064;16.612;2023-12-14T10:06:15;60.58;;;24.27;;
26598;SDS011;14240;51.064;16.612;2023-12-14T10:08:42;65.63;;;25.10;;
26598;SDS011;14240;51.064;16.612;2023-12-14T10:13:46;64.20;;;23.77;;
26598;SDS011;14240;51.064;16.612;2023-12-14T10:16:11;59.47;;;22.63;;
26598;SDS011;14240;51.064;16.612;2023-12-14T10:18:37;68.10;;;23.95;;
26598;SDS011;14240;51.064;16.612;2023-12-14T10:21:05;67.13;;;24.10;;
26598;SDS011;14240;51.064;16.612;2023-12-14T10:23:33;71.80;;;22.80;;
26598;SDS011;14240;51.064;16.612;2023-12-14T10:26:00;73.72;;;25.17;;
26598;SDS011;14240;51.064;16.612;2023-12-14T10:28:25;69.70;;;26.17;;
26598;SDS011;14240;51.064;16.612;2023-12-14T10:30:52;74.10;;;24.58;;
26598;SDS011;14240;51.064;16.612;2023-12-14T10:33:18;70.88;;;24.05;;
26598;SDS011;14240;51.064;16.612;2023-12-14T10:35:43;71.38;;;25.05;;
26598;SDS011;14240;51.064;16.612;2023-12-14T10:38:11;82.95;;;27.42;;
26598;SDS011;14240;51.064;16.612;2023-12-14T10:40:39;71.78;;;26.95;;
26598;SDS011;14240;51.064;16.612;2023-12-14T10:43:08;67.65;;;24.35;;
26598;SDS011;14240;51.064;16.612;2023-12-14T10:45:35;59.57;;;22.07;;
26598;SDS011;14240;51.064;16.612;2023-12-14T10:48:04;55.38;;;20.92;;
26598;SDS011;14240;51.064;16.612;2023-12-14T10:50:30;51.70;;;22.07;;
26598;SDS011;14240;51.064;16.612;2023-12-14T10:52:57;55.10;;;21.52;;
26598;SDS011;14240;51.064;16.612;2023-12-14T10:55:37;57.60;;;22.60;;
26598;SDS011;14240;51.064;16.612;2023-12-14T10:58:07;58.17;;;21.60;;
26598;SDS011;14240;51.064;16.612;2023-12-14T11:00:33;63.03;;;23.15;;
26598;SDS011;14240;51.064;16.612;2023-12-14T11:02:59;51.85;;;22.58;;
26598;SDS011;14240;51.064;16.612;2023-12-14T11:05:26;54.42;;;20.70;;
26598;SDS011;14240;51.064;16.612;2023-12-14T11:08:00;52.65;;;21.23;;
26598;SDS011;14240;51.064;16.612;2023-12-14T11:10:53;51.03;;;20.98;;
26598;SDS011;14240;51.064;16.612;2023-12-14T11:13:22;58.38;;;22.23;;
26598;SDS011;14240;51.064;16.612;2023-12-14T11:15:50;54.63;;;22.77;;
26598;SDS011;14240;51.064;16.612;2023-12-14T11:20:56;50.83;;;19.00;;
26598;SDS011;14240;51.064;16.612;2023-12-14T11:25:56;43.85;;;19.15;;
26598;SDS011;14240;51.064;16.612;2023-12-14T11:28:24;55.17;;;21.25;;
26598;SDS011;14240;51.064;16.612;2023-12-14T11:30:49;50.40;;;20.48;;
26598;SDS011;14240;51.064;16.612;2023-12-14T11:33:16;51.72;;;22.13;;
26598;SDS011;14240;51.064;16.612;2023-12-14T11:35:42;64.82;;;24.45;;
26598;SDS011;14240;51.064;16.612;2023-12-14T11:38:08;49.95;;;19.42;;
26598;SDS011;14240;51.064;16.612;2023-12-14T11:40:47;59.92;;;21.60;;
26598;SDS011;14240;51.064;16.612;2023-12-14T11:43:17;56.85;;;21.42;;
26598;SDS011;14240;51.064;16.612;2023-12-14T11:45:45;53.50;;;21.33;;
26598;SDS011;14240;51.064;16.612;2023-12-14T11:48:11;60.25;;;20.95;;
26598;SDS011;14240;51.064;16.612;2023-12-14T11:50:37;44.28;;;19.23;;
26598;SDS011;14240;51.064;16.612;2023-12-14T11:53:04;49.15;;;18.85;;
26598;SDS011;14240;51.064;16.612;2023-12-14T11:55:30;47.05;;;20.02;;
26598;SDS011;14240;51.064;16.612;2023-12-14T11:57:57;53.05;;;19.90;;
26598;SDS011;14240;51.064;16.612;2023-12-14T12:00:27;50.20;;;19.77;;
26598;SDS011;14240;51.064;16.612;2023-12-14T12:03:09;43.60;;;18.85;;
26598;SDS011;14240;51.064;16.612;2023-12-14T12:05:46;43.65;;;18.77;;
26598;SDS011;14240;51.064;16.612;2023-12-14T12:08:13;48.25;;;19.27;;
26598;SDS011;14240;51.064;16.612;2023-12-14T12:10:40;44.70;;;20.23;;
26598;SDS011;14240;51.064;16.612;2023-12-14T12:13:13;38.57;;;16.60;;
26598;SDS011;14240;51.064;16.612;2023-12-14T12:15:40;44.00;;;17.90;;
26598;SDS011;14240;51.064;16.612;2023-12-14T12:18:07;45.83;;;17.90;;
26598;SDS011;14240;51.064;16.612;2023-12-14T12:20:34;40.08;;;16.77;;
26598;SDS011;14240;51.064;16.612;2023-12-14T12:23:01;36.70;;;17.52;;
26598;SDS011;14240;51.064;16.612;2023-12-14T12:25:28;38.45;;;17.90;;
26598;SDS011;14240;51.064;16.612;2023-12-14T12:27:54;41.47;;;17.42;;
26598;SDS011;14240;51.064;16.612;2023-12-14T12:30:20;35.80;;;16.67;;
26598;SDS011;14240;51.064;16.612;2023-12-14T12:32:47;31.30;;;15.32;;
26598;SDS011;14240;51.064;16.612;2023-12-14T12:35:12;32.53;;;15.80;;
26598;SDS011;14240;51.064;16.612;2023-12-14T12:37:38;36.33;;;16.73;;
26598;SDS011;14240;51.064;16.612;2023-12-14T12:40:05;29.48;;;15.57;;
26598;SDS011;14240;51.064;16.612;2023-12-14T12:42:32;34.08;;;15.75;;
26598;SDS011;14240;51.064;16.612;2023-12-14T12:44:57;27.80;;;14.82;;
26598;SDS011;14240;51.064;16.612;2023-12-14T12:47:23;37.25;;;16.30;;
26598;SDS011;14240;51.064;16.612;2023-12-14T12:49:49;35.80;;;16.90;;
26598;SDS011;14240;51.064;16.612;2023-12-14T12:52:14;39.55;;;18.48;;
26598;SDS011;14240;51.064;16.612;2023-12-14T12:54:40;39.22;;;17.48;;
26598;SDS011;14240;51.064;16.612;2023-12-14T12:57:06;37.55;;;17.33;;
26598;SDS011;14240;51.064;16.612;2023-12-14T12:59:31;40.70;;;18.25;;
26598;SDS011;14240;51.064;16.612;2023-12-14T13:01:58;39.97;;;18.48;;
26598;SDS011;14240;51.064;16.612;2023-12-14T13:04:24;42.30;;;18.73;;
26598;SDS011;14240;51.064;16.612;2023-12-14T13:06:51;35.83;;;16.43;;
26598;SDS011;14240;51.064;16.612;2023-12-14T13:09:17;34.92;;;16.92;;
26598;SDS011;14240;51.064;16.612;2023-12-14T13:11:44;41.70;;;18.38;;
26598;SDS011;14240;51.064;16.612;2023-12-14T13:14:10;42.28;;;19.98;;
26598;SDS011;14240;51.064;16.612;2023-12-14T13:16:37;43.33;;;17.98;;
26598;SDS011;14240;51.064;16.612;2023-12-14T13:19:03;44.03;;;20.88;;
26598;SDS011;14240;51.064;16.612;2023-12-14T13:21:30;47.10;;;20.20;;
26598;SDS011;14240;51.064;16.612;2023-12-14T13:23:56;42.00;;;18.80;;
26598;SDS011;14240;51.064;16.612;2023-12-14T13:26:23;38.50;;;18.37;;
26598;SDS011;14240;51.064;16.612;2023-12-14T13:28:50;45.40;;;20.42;;
26598;SDS011;14240;51.064;16.612;2023-12-14T13:31:17;35.97;;;16.75;;
26598;SDS011;14240;51.064;16.612;2023-12-14T13:33:43;41.38;;;17.92;;
26598;SDS011;14240;51.064;16.612;2023-12-14T13:36:10;39.03;;;17.50;;
26598;SDS011;14240;51.064;16.612;2023-12-14T13:38:36;36.78;;;16.38;;
26598;SDS011;14240;51.064;16.612;2023-12-14T13:41:02;30.08;;;15.10;;
26598;SDS011;14240;51.064;16.612;2023-12-14T13:43:28;32.28;;;15.75;;
26598;SDS011;14240;51.064;16.612;2023-12-14T13:45:54;31.70;;;15.98;;
26598;SDS011;14240;51.064;16.612;2023-12-14T13:48:23;36.17;;;15.98;;
26598;SDS011;14240;51.064;16.612;2023-12-14T13:50:49;31.50;;;14.48;;
26598;SDS011;14240;51.064;16.612;2023-12-14T13:53:15;33.47;;;14.10;;
26598;SDS011;14240;51.064;16.612;2023-12-14T13:55:41;28.95;;;13.50;;
26598;SDS011;14240;51.064;16.612;2023-12-14T13:58:06;28.95;;;14.05;;
26598;SDS011;14240;51.064;16.612;2023-12-14T14:00:32;30.95;;;14.50;;
26598;SDS011;14240;51.064;16.612;2023-12-14T14:02:59;33.40;;;16.77;;
26598;SDS011;14240;51.064;16.612;2023-12-14T14:05:25;37.40;;;17.40;;
26598;SDS011;14240;51.064;16.612;2023-12-14T14:07:51;36.88;;;16.27;;